sensor_id;sensor_type;location;lat;lon;timestamp;P1;durP1;ratioP1;P2;durP2;ratioP2
14736;SDS011;7459;53.590;10.062;2024-01-25T00:02:20;26.08;;;2.97;;
14736;SDS011;7459;53.590;10.062;2024-01-25T00:04:45;22.57;;;3.80;;
14736;SDS011;7459;53.590;10.062;2024-01-25T00:07:11;33.03;;;3.78;;
14736;SDS011;7459;53.590;10.062;2024-01-25T00:09:37;26.77;;;3.83;;
14736;SDS011;7459;53.590;10.062;2024-01-25T00:12:02;26.45;;;3.58;;
14736;SDS011;7459;53.590;10.062;2024-01-25T00:14:29;26.02;;;4.20;;
14736;SDS011;7459;53.590;10.062;2024-01-25T00:16:54;26.50;;;3.70;;
14736;SDS011;7459;53.590;10.062;2024-01-25T00:19:20;24.88;;;4.32;;
14736;SDS011;7459;53.590;10.062;2024-01-25T00:21:46;31.98;;;3.95;;
14736;SDS011;7459;53.590;10.062;2024-01-25T00:24:12;24.20;;;3.72;;
14736;SDS011;7459;53.590;10.062;2024-01-25T00:26:38;29.60;;;3.33;;
14736;SDS011;7459;53.590;10.062;2024-01-25T00:29:04;24.30;;;3.25;;
14736;SDS011;7459;53.590;10.062;2024-01-25T00:31:30;26.00;;;3.42;;
14736;SDS011;7459;53.590;10.062;2024-01-25T00:33:57;29.15;;;3.38;;
14736;SDS011;7459;53.590;10.062;2024-01-25T00:36:23;37.67;;;3.97;;
14736;SDS011;7459;53.590;10.062;2024-01-25T00:38:51;25.63;;;4.30;;
14736;SDS011;7459;53.590;10.062;2024-01-25T00:41:17;36.60;;;4.15;;
14736;SDS011;7459;53.590;10.062;2024-01-25T00:43:46;21.15;;;3.47;;
14736;SDS011;7459;53.590;10.062;2024-01-25T00:46:12;26.98;;;3.80;;
14736;SDS011;7459;53.590;10.062;2024-01-25T00:48:39;21.30;;;2.70;;
14736;SDS011;7459;53.590;10.062;2024-01-25T00:51:06;25.38;;;4.78;;
14736;SDS011;7459;53.590;10.062;2024-01-25T00:53:33;26.40;;;3.35;;
14736;SDS011;7459;53.590;10.062;2024-01-25T00:56:00;24.80;;;3.63;;
14736;SDS011;7459;53.590;10.062;2024-01-25T00:58:26;33.20;;;4.43;;
14736;SDS011;7459;53.590;10.062;2024-01-25T01:00:52;25.00;;;3.27;;
14736;SDS011;7459;53.590;10.062;2024-01-25T01:03:18;26.73;;;3.65;;
14736;SDS011;7459;53.590;10.062;2024-01-25T01:05:45;27.98;;;3.42;;
14736;SDS011;7459;53.590;10.062;2024-01-25T01:08:11;24.20;;;3.53;;
14736;SDS011;7459;53.590;10.062;2024-01-25T01:10:37;23.15;;;3.38;;
14736;SDS011;7459;53.590;10.062;2024-01-25T01:13:03;23.38;;;3.53;;
14736;SDS011;7459;53.590;10.062;2024-01-25T01:15:29;26.27;;;3.95;;
14736;SDS011;7459;53.590;10.062;2024-01-25T01:17:54;16.65;;;2.60;;
14736;SDS011;7459;53.590;10.062;2024-01-25T01:20:20;23.50;;;3.42;;
14736;SDS011;7459;53.590;10.062;2024-01-25T01:22:46;24.23;;;2.83;;
14736;SDS011;7459;53.590;10.062;2024-01-25T01:25:11;28.88;;;4.72;;
14736;SDS011;7459;53.590;10.062;2024-01-25T01:27:37;20.80;;;2.95;;
14736;SDS011;7459;53.590;10.062;2024-01-25T01:30:03;28.40;;;3.73;;
14736;SDS011;7459;53.590;10.062;2024-01-25T01:32:29;25.50;;;2.70;;
14736;SDS011;7459;53.590;10.062;2024-01-25T01:34:55;27.58;;;4.53;;
14736;SDS011;7459;53.590;10.062;2024-01-25T01:37:21;25.93;;;3.97;;
14736;SDS011;7459;53.590;10.062;2024-01-25T01:39:46;31.90;;;4.23;;
14736;SDS011;7459;53.590;10.062;2024-01-25T01:42:12;25.20;;;3.50;;
14736;SDS011;7459;53.590;10.062;2024-01-25T01:44:38;31.27;;;4.43;;
14736;SDS011;7459;53.590;10.062;2024-01-25T01:47:04;22.17;;;2.80;;
14736;SDS011;7459;53.590;10.062;2024-01-25T01:49:30;29.15;;;3.65;;
14736;SDS011;7459;53.590;10.062;2024-01-25T01:51:55;37.07;;;4.80;;
14736;SDS011;7459;53.590;10.062;2024-01-25T01:54:21;28.83;;;4.43;;
14736;SDS011;7459;53.590;10.062;2024-01-25T01:56:47;23.60;;;4.18;;
14736;SDS011;7459;53.590;10.062;2024-01-25T01:59:13;26.30;;;3.60;;
14736;SDS011;7459;53.590;10.062;2024-01-25T02:01:41;23.70;;;2.55;;
14736;SDS011;7459;53.590;10.062;2024-01-25T02:04:06;26.50;;;3.25;;
14736;SDS011;7459;53.590;10.062;2024-01-25T02:06:32;21.17;;;3.30;;
14736;SDS011;7459;53.590;10.062;2024-01-25T02:08:58;27.10;;;4.13;;
14736;SDS011;7459;53.590;10.062;2024-01-25T02:11:24;27.38;;;2.53;;
14736;SDS011;7459;53.590;10.062;2024-01-25T02:13:51;39.42;;;5.65;;
14736;SDS011;7459;53.590;10.062;2024-01-25T02:16:16;28.40;;;3.60;;
14736;SDS011;7459;53.590;10.062;2024-01-25T02:18:43;22.23;;;4.07;;
14736;SDS011;7459;53.590;10.062;2024-01-25T02:21:08;17.33;;;2.77;;
14736;SDS011;7459;53.590;10.062;2024-01-25T02:23:34;25.50;;;3.40;;
14736;SDS011;7459;53.590;10.062;2024-01-25T02:26:00;21.20;;;2.73;;
14736;SDS011;7459;53.590;10.062;2024-01-25T02:28:25;24.92;;;4.10;;
14736;SDS011;7459;53.590;10.062;2024-01-25T02:30:51;20.70;;;2.60;;
14736;SDS011;7459;53.590;10.062;2024-01-25T02:33:17;27.13;;;3.60;;
14736;SDS011;7459;53.590;10.062;2024-01-25T02:35:43;21.33;;;3.03;;
14736;SDS011;7459;53.590;10.062;2024-01-25T02:38:08;21.13;;;3.55;;
14736;SDS011;7459;53.590;10.062;2024-01-25T02:40:34;24.43;;;3.20;;
14736;SDS011;7459;53.590;10.062;2024-01-25T02:43:00;24.17;;;3.10;;
14736;SDS011;7459;53.590;10.062;2024-01-25T02:45:26;16.27;;;3.25;;
14736;SDS011;7459;53.590;10.062;2024-01-25T02:47:51;24.02;;;3.85;;
14736;SDS011;7459;53.590;10.062;2024-01-25T02:50:17;27.77;;;3.07;;
14736;SDS011;7459;53.590;10.062;2024-01-25T02:52:43;19.63;;;3.42;;
14736;SDS011;7459;53.590;10.062;2024-01-25T02:55:08;21.92;;;3.30;;
14736;SDS011;7459;53.590;10.062;2024-01-25T02:57:34;16.88;;;3.15;;
14736;SDS011;7459;53.590;10.062;2024-01-25T03:00:00;30.67;;;3.47;;
14736;SDS011;7459;53.590;10.062;2024-01-25T03:02:25;14.52;;;2.72;;
14736;SDS011;7459;53.590;10.062;2024-01-25T03:04:51;19.63;;;3.15;;
14736;SDS011;7459;53.590;10.062;2024-01-25T03:07:17;25.13;;;3.27;;
14736;SDS011;7459;53.590;10.062;2024-01-25T03:09:43;28.77;;;3.83;;
14736;SDS011;7459;53.590;10.062;2024-01-25T03:12:08;29.67;;;2.90;;
14736;SDS011;7459;53.590;10.062;2024-01-25T03:14:34;26.83;;;3.60;;
14736;SDS011;7459;53.590;10.062;2024-01-25T03:17:00;32.67;;;4.07;;
14736;SDS011;7459;53.590;10.062;2024-01-25T03:19:26;22.00;;;3.10;;
14736;SDS011;7459;53.590;10.062;2024-01-25T03:21:53;22.75;;;3.30;;
14736;SDS011;7459;53.590;10.062;2024-01-25T03:24:19;15.85;;;3.50;;
14736;SDS011;7459;53.590;10.062;2024-01-25T03:26:45;23.63;;;2.75;;
14736;SDS011;7459;53.590;10.062;2024-01-25T03:29:11;20.38;;;3.75;;
14736;SDS011;7459;53.590;10.062;2024-01-25T03:31:37;24.77;;;3.60;;
14736;SDS011;7459;53.590;10.062;2024-01-25T03:34:03;25.63;;;3.65;;
14736;SDS011;7459;53.590;10.062;2024-01-25T03:36:30;23.48;;;3.70;;
14736;SDS011;7459;53.590;10.062;2024-01-25T03:38:56;23.40;;;3.60;;
14736;SDS011;7459;53.590;10.062;2024-01-25T03:41:22;22.47;;;3.40;;
14736;SDS011;7459;53.590;10.062;2024-01-25T03:43:48;21.75;;;2.85;;
14736;SDS011;7459;53.590;10.062;2024-01-25T03:46:14;23.23;;;3.17;;
14736;SDS011;7459;53.590;10.062;2024-01-25T03:48:40;17.30;;;2.88;;
14736;SDS011;7459;53.590;10.062;2024-01-25T03:51:06;29.33;;;3.80;;
14736;SDS011;7459;53.590;10.062;2024-01-25T03:53:32;23.55;;;2.63;;
14736;SDS011;7459;53.590;10.062;2024-01-25T03:55:58;29.70;;;3.22;;
14736;SDS011;7459;53.590;10.062;2024-01-25T03:58:23;25.30;;;3.00;;
14736;SDS011;7459;53.590;10.062;2024-01-25T04:00:49;23.60;;;3.50;;
14736;SDS011;7459;53.590;10.062;2024-01-25T04:03:15;26.63;;;3.13;;
14736;SDS011;7459;53.590;10.062;2024-01-25T04:05:40;21.70;;;3.00;;
14736;SDS011;7459;53.590;10.062;2024-01-25T04:08:06;30.52;;;3.58;;
14736;SDS011;7459;53.590;10.062;2024-01-25T04:10:32;22.33;;;3.43;;
14736;SDS011;7459;53.590;10.062;2024-01-25T04:12:58;20.40;;;3.72;;
14736;SDS011;7459;53.590;10.062;2024-01-25T04:15:25;29.90;;;4.72;;
14736;SDS011;7459;53.590;10.062;2024-01-25T04:17:51;27.35;;;3.88;;
14736;SDS011;7459;53.590;10.062;2024-01-25T04:20:18;18.63;;;2.00;;
14736;SDS011;7459;53.590;10.062;2024-01-25T04:22:44;27.25;;;2.92;;
14736;SDS011;7459;53.590;10.062;2024-01-25T04:25:10;22.95;;;4.05;;
14736;SDS011;7459;53.590;10.062;2024-01-25T04:27:37;23.60;;;3.05;;
14736;SDS011;7459;53.590;10.062;2024-01-25T04:30:06;28.40;;;3.23;;
14736;SDS011;7459;53.590;10.062;2024-01-25T04:32:33;24.75;;;3.28;;
14736;SDS011;7459;53.590;10.062;2024-01-25T04:34:59;19.73;;;3.30;;
14736;SDS011;7459;53.590;10.062;2024-01-25T04:37:25;29.77;;;3.67;;
14736;SDS011;7459;53.590;10.062;2024-01-25T04:39:50;27.20;;;3.13;;
14736;SDS011;7459;53.590;10.062;2024-01-25T04:42:16;26.80;;;3.60;;
14736;SDS011;7459;53.590;10.062;2024-01-25T04:44:42;24.73;;;3.20;;
14736;SDS011;7459;53.590;10.062;2024-01-25T04:47:08;26.05;;;3.47;;
14736;SDS011;7459;53.590;10.062;2024-01-25T04:49:34;21.83;;;3.05;;
14736;SDS011;7459;53.590;10.062;2024-01-25T04:52:01;21.27;;;3.78;;
14736;SDS011;7459;53.590;10.062;2024-01-25T04:54:26;20.67;;;3.08;;
14736;SDS011;7459;53.590;10.062;2024-01-25T04:56:52;18.53;;;3.37;;
14736;SDS011;7459;53.590;10.062;2024-01-25T04:59:18;27.23;;;3.38;;
14736;SDS011;7459;53.590;10.062;2024-01-25T05:01:43;18.33;;;2.63;;
14736;SDS011;7459;53.590;10.062;2024-01-25T05:04:09;22.58;;;3.15;;
14736;SDS011;7459;53.590;10.062;2024-01-25T05:06:35;28.33;;;4.13;;
14736;SDS011;7459;53.590;10.062;2024-01-25T05:09:01;30.27;;;4.00;;
14736;SDS011;7459;53.590;10.062;2024-01-25T05:11:28;21.13;;;2.53;;
14736;SDS011;7459;53.590;10.062;2024-01-25T05:13:53;27.73;;;3.10;;
14736;SDS011;7459;53.590;10.062;2024-01-25T05:16:19;30.60;;;4.18;;
14736;SDS011;7459;53.590;10.062;2024-01-25T05:18:45;28.30;;;4.43;;
14736;SDS011;7459;53.590;10.062;2024-01-25T05:21:10;22.73;;;2.97;;
14736;SDS011;7459;53.590;10.062;2024-01-25T05:23:36;23.67;;;2.77;;
14736;SDS011;7459;53.590;10.062;2024-01-25T05:26:02;23.95;;;3.90;;
14736;SDS011;7459;53.590;10.062;2024-01-25T05:28:27;18.85;;;2.30;;
14736;SDS011;7459;53.590;10.062;2024-01-25T05:30:53;23.30;;;2.50;;
14736;SDS011;7459;53.590;10.062;2024-01-25T05:33:19;21.17;;;2.63;;
14736;SDS011;7459;53.590;10.062;2024-01-25T05:35:44;31.42;;;3.15;;
14736;SDS011;7459;53.590;10.062;2024-01-25T05:38:10;25.45;;;3.05;;
14736;SDS011;7459;53.590;10.062;2024-01-25T05:40:36;17.83;;;2.90;;
14736;SDS011;7459;53.590;10.062;2024-01-25T05:43:01;16.00;;;2.85;;
14736;SDS011;7459;53.590;10.062;2024-01-25T05:45:28;25.40;;;2.88;;
14736;SDS011;7459;53.590;10.062;2024-01-25T05:47:53;29.20;;;2.83;;
14736;SDS011;7459;53.590;10.062;2024-01-25T05:50:19;25.00;;;3.15;;
14736;SDS011;7459;53.590;10.062;2024-01-25T05:52:45;30.25;;;3.78;;
14736;SDS011;7459;53.590;10.062;2024-01-25T14:57:43;13.63;;;2.42;;
14736;SDS011;7459;53.590;10.062;2024-01-25T15:00:09;20.65;;;2.97;;
14736;SDS011;7459;53.590;10.062;2024-01-25T15:02:38;17.88;;;2.30;;
14736;SDS011;7459;53.590;10.062;2024-01-25T15:05:05;21.65;;;2.10;;
14736;SDS011;7459;53.590;10.062;2024-01-25T15:07:30;18.40;;;2.72;;
14736;SDS011;7459;53.590;10.062;2024-01-25T15:09:56;10.65;;;2.35;;
14736;SDS011;7459;53.590;10.062;2024-01-25T15:12:22;16.08;;;2.47;;
14736;SDS011;7459;53.590;10.062;2024-01-25T15:14:47;18.43;;;2.00;;
14736;SDS011;7459;53.590;10.062;2024-01-25T15:17:13;11.77;;;1.55;;
14736;SDS011;7459;53.590;10.062;2024-01-25T15:19:39;15.40;;;1.97;;
14736;SDS011;7459;53.590;10.062;2024-01-25T15:22:05;10.95;;;1.85;;
14736;SDS011;7459;53.590;10.062;2024-01-25T15:24:30;15.02;;;1.65;;
14736;SDS011;7459;53.590;10.062;2024-01-25T15:26:57;20.42;;;2.50;;
14736;SDS011;7459;53.590;10.062;2024-01-25T15:29:23;16.33;;;2.42;;
14736;SDS011;7459;53.590;10.062;2024-01-25T15:31:48;18.03;;;2.63;;
14736;SDS011;7459;53.590;10.062;2024-01-25T15:34:14;17.08;;;2.45;;
14736;SDS011;7459;53.590;10.062;2024-01-25T15:36:40;15.00;;;2.20;;
14736;SDS011;7459;53.590;10.062;2024-01-25T15:39:08;15.27;;;2.13;;
14736;SDS011;7459;53.590;10.062;2024-01-25T15:41:35;9.57;;;2.50;;
14736;SDS011;7459;53.590;10.062;2024-01-25T15:44:01;13.70;;;2.85;;
14736;SDS011;7459;53.590;10.062;2024-01-25T15:46:27;11.38;;;1.80;;
14736;SDS011;7459;53.590;10.062;2024-01-25T15:48:53;13.53;;;2.00;;
14736;SDS011;7459;53.590;10.062;2024-01-25T15:51:20;16.77;;;2.13;;
14736;SDS011;7459;53.590;10.062;2024-01-25T15:53:46;13.10;;;2.10;;
14736;SDS011;7459;53.590;10.062;2024-01-25T15:56:13;10.45;;;1.90;;
14736;SDS011;7459;53.590;10.062;2024-01-25T15:58:39;18.33;;;2.65;;
14736;SDS011;7459;53.590;10.062;2024-01-25T16:01:04;17.35;;;2.78;;
14736;SDS011;7459;53.590;10.062;2024-01-25T16:03:30;11.97;;;2.53;;
14736;SDS011;7459;53.590;10.062;2024-01-25T16:05:55;16.07;;;2.70;;
14736;SDS011;7459;53.590;10.062;2024-01-25T16:08:22;24.27;;;2.33;;
14736;SDS011;7459;53.590;10.062;2024-01-25T16:10:47;13.20;;;2.78;;
14736;SDS011;7459;53.590;10.062;2024-01-25T16:13:13;19.17;;;2.67;;
14736;SDS011;7459;53.590;10.062;2024-01-25T16:15:40;17.48;;;2.55;;
14736;SDS011;7459;53.590;10.062;2024-01-25T16:18:06;14.45;;;2.50;;
14736;SDS011;7459;53.590;10.062;2024-01-25T16:20:32;21.67;;;2.77;;
14736;SDS011;7459;53.590;10.062;2024-01-25T16:22:58;15.70;;;2.63;;
14736;SDS011;7459;53.590;10.062;2024-01-25T16:25:24;9.68;;;2.22;;
14736;SDS011;7459;53.590;10.062;2024-01-25T16:27:50;20.15;;;3.30;;
14736;SDS011;7459;53.590;10.062;2024-01-25T16:30:16;15.18;;;2.80;;
14736;SDS011;7459;53.590;10.062;2024-01-25T16:32:42;16.20;;;2.63;;
14736;SDS011;7459;53.590;10.062;2024-01-25T16:35:07;14.82;;;3.50;;
14736;SDS011;7459;53.590;10.062;2024-01-25T16:37:33;19.13;;;3.13;;
14736;SDS011;7459;53.590;10.062;2024-01-25T16:39:59;21.97;;;2.40;;
14736;SDS011;7459;53.590;10.062;2024-01-25T16:42:24;18.15;;;3.30;;
14736;SDS011;7459;53.590;10.062;2024-01-25T16:44:50;17.10;;;3.37;;
14736;SDS011;7459;53.590;10.062;2024-01-25T16:47:16;14.02;;;2.75;;
14736;SDS011;7459;53.590;10.062;2024-01-25T16:49:42;19.77;;;3.53;;
14736;SDS011;7459;53.590;10.062;2024-01-25T16:52:07;18.55;;;3.15;;
14736;SDS011;7459;53.590;10.062;2024-01-25T16:54:33;10.83;;;2.30;;
14736;SDS011;7459;53.590;10.062;2024-01-25T16:56:59;17.00;;;2.75;;
14736;SDS011;7459;53.590;10.062;2024-01-25T16:59:25;14.10;;;2.20;;
14736;SDS011;7459;53.590;10.062;2024-01-25T17:01:51;15.98;;;2.63;;
14736;SDS011;7459;53.590;10.062;2024-01-25T17:04:16;20.77;;;3.73;;
14736;SDS011;7459;53.590;10.062;2024-01-25T17:06:43;19.42;;;2.75;;
14736;SDS011;7459;53.590;10.062;2024-01-25T17:09:10;21.67;;;3.25;;
14736;SDS011;7459;53.590;10.062;2024-01-25T17:11:38;17.60;;;2.92;;
14736;SDS011;7459;53.590;10.062;2024-01-25T17:14:04;17.20;;;2.37;;
14736;SDS011;7459;53.590;10.062;2024-01-25T17:16:30;13.05;;;2.65;;
14736;SDS011;7459;53.590;10.062;2024-01-25T17:18:56;16.27;;;2.83;;
14736;SDS011;7459;53.590;10.062;2024-01-25T17:21:23;22.57;;;2.50;;
14736;SDS011;7459;53.590;10.062;2024-01-25T17:23:50;18.40;;;2.70;;
14736;SDS011;7459;53.590;10.062;2024-01-25T17:26:17;16.23;;;2.40;;
14736;SDS011;7459;53.590;10.062;2024-01-25T17:28:43;17.00;;;3.97;;
14736;SDS011;7459;53.590;10.062;2024-01-25T17:31:09;19.52;;;2.65;;
14736;SDS011;7459;53.590;10.062;2024-01-25T17:33:34;14.60;;;3.25;;
14736;SDS011;7459;53.590;10.062;2024-01-25T17:36:03;14.37;;;2.70;;
14736;SDS011;7459;53.590;10.062;2024-01-25T17:38:29;18.42;;;3.42;;
14736;SDS011;7459;53.590;10.062;2024-01-25T17:40:55;15.38;;;2.70;;
14736;SDS011;7459;53.590;10.062;2024-01-25T17:43:21;14.73;;;3.37;;
14736;SDS011;7459;53.590;10.062;2024-01-25T17:45:46;17.85;;;2.55;;
14736;SDS011;7459;53.590;10.062;2024-01-25T17:48:12;16.10;;;2.83;;
14736;SDS011;7459;53.590;10.062;2024-01-25T17:50:38;23.10;;;4.00;;
14736;SDS011;7459;53.590;10.062;2024-01-25T17:53:03;18.00;;;2.87;;
14736;SDS011;7459;53.590;10.062;2024-01-25T17:55:29;14.70;;;2.40;;
14736;SDS011;7459;53.590;10.062;2024-01-25T17:57:55;15.80;;;2.70;;
14736;SDS011;7459;53.590;10.062;2024-01-25T18:00:20;15.45;;;3.10;;
14736;SDS011;7459;53.590;10.062;2024-01-25T18:02:46;17.83;;;2.57;;
14736;SDS011;7459;53.590;10.062;2024-01-25T18:05:12;14.35;;;3.38;;
14736;SDS011;7459;53.590;10.062;2024-01-25T18:07:38;13.57;;;2.50;;
14736;SDS011;7459;53.590;10.062;2024-01-25T18:10:03;17.70;;;2.67;;
14736;SDS011;7459;53.590;10.062;2024-01-25T18:12:29;18.70;;;2.70;;
14736;SDS011;7459;53.590;10.062;2024-01-25T18:14:55;22.73;;;3.40;;
14736;SDS011;7459;53.590;10.062;2024-01-25T18:17:21;15.23;;;3.63;;
14736;SDS011;7459;53.590;10.062;2024-01-25T18:19:48;21.60;;;3.30;;
14736;SDS011;7459;53.590;10.062;2024-01-25T18:22:13;16.27;;;2.78;;
14736;SDS011;7459;53.590;10.062;2024-01-25T18:24:39;11.43;;;2.30;;
14736;SDS011;7459;53.590;10.062;2024-01-25T18:27:05;16.77;;;3.03;;
14736;SDS011;7459;53.590;10.062;2024-01-25T18:29:30;15.13;;;2.73;;
14736;SDS011;7459;53.590;10.062;2024-01-25T18:31:58;17.25;;;3.33;;
14736;SDS011;7459;53.590;10.062;2024-01-25T18:34:24;16.73;;;2.60;;
14736;SDS011;7459;53.590;10.062;2024-01-25T18:36:50;26.20;;;3.33;;
14736;SDS011;7459;53.590;10.062;2024-01-25T18:39:16;16.60;;;3.05;;
14736;SDS011;7459;53.590;10.062;2024-01-25T18:41:42;14.60;;;2.60;;
14736;SDS011;7459;53.590;10.062;2024-01-25T18:44:08;15.67;;;3.03;;
14736;SDS011;7459;53.590;10.062;2024-01-25T18:46:34;18.05;;;3.00;;
14736;SDS011;7459;53.590;10.062;2024-01-25T18:49:01;15.80;;;2.90;;
14736;SDS011;7459;53.590;10.062;2024-01-25T18:51:27;16.90;;;2.80;;
14736;SDS011;7459;53.590;10.062;2024-01-25T18:53:53;12.13;;;2.80;;
14736;SDS011;7459;53.590;10.062;2024-01-25T18:56:19;21.45;;;3.72;;
14736;SDS011;7459;53.590;10.062;2024-01-25T18:58:45;21.60;;;3.43;;
14736;SDS011;7459;53.590;10.062;2024-01-25T19:01:12;15.15;;;3.03;;
14736;SDS011;7459;53.590;10.062;2024-01-25T19:03:39;18.63;;;3.35;;
14736;SDS011;7459;53.590;10.062;2024-01-25T19:06:05;20.40;;;3.88;;
14736;SDS011;7459;53.590;10.062;2024-01-25T19:08:32;21.33;;;3.97;;
14736;SDS011;7459;53.590;10.062;2024-01-25T19:10:58;15.73;;;3.55;;
14736;SDS011;7459;53.590;10.062;2024-01-25T19:13:23;16.48;;;2.92;;
14736;SDS011;7459;53.590;10.062;2024-01-25T19:15:49;17.02;;;3.03;;
14736;SDS011;7459;53.590;10.062;2024-01-25T19:18:15;26.83;;;3.80;;
14736;SDS011;7459;53.590;10.062;2024-01-25T19:20:41;16.40;;;3.45;;
14736;SDS011;7459;53.590;10.062;2024-01-25T19:23:08;17.60;;;3.72;;
14736;SDS011;7459;53.590;10.062;2024-01-25T19:25:34;25.47;;;4.37;;
14736;SDS011;7459;53.590;10.062;2024-01-25T19:27:59;19.80;;;3.65;;
14736;SDS011;7459;53.590;10.062;2024-01-25T19:30:25;21.10;;;3.70;;
14736;SDS011;7459;53.590;10.062;2024-01-25T19:32:51;16.90;;;3.95;;
14736;SDS011;7459;53.590;10.062;2024-01-25T19:35:17;22.70;;;4.18;;
14736;SDS011;7459;53.590;10.062;2024-01-25T19:37:43;17.60;;;3.27;;
14736;SDS011;7459;53.590;10.062;2024-01-25T19:40:09;15.57;;;3.08;;
14736;SDS011;7459;53.590;10.062;2024-01-25T19:42:35;21.98;;;3.97;;
14736;SDS011;7459;53.590;10.062;2024-01-25T19:45:01;25.40;;;3.90;;
14736;SDS011;7459;53.590;10.062;2024-01-25T19:47:27;20.13;;;4.05;;
14736;SDS011;7459;53.590;10.062;2024-01-25T19:49:53;15.73;;;3.67;;
14736;SDS011;7459;53.590;10.062;2024-01-25T19:52:20;13.90;;;3.78;;
14736;SDS011;7459;53.590;10.062;2024-01-25T19:54:46;15.40;;;3.70;;
14736;SDS011;7459;53.590;10.062;2024-01-25T19:57:13;19.60;;;3.78;;
14736;SDS011;7459;53.590;10.062;2024-01-25T19:59:39;18.90;;;4.45;;
14736;SDS011;7459;53.590;10.062;2024-01-25T20:02:09;20.63;;;4.35;;
14736;SDS011;7459;53.590;10.062;2024-01-25T20:04:35;24.77;;;4.68;;
14736;SDS011;7459;53.590;10.062;2024-01-25T20:07:01;22.35;;;4.00;;
14736;SDS011;7459;53.590;10.062;2024-01-25T20:09:27;22.45;;;3.85;;
14736;SDS011;7459;53.590;10.062;2024-01-25T20:11:53;21.13;;;5.13;;
14736;SDS011;7459;53.590;10.062;2024-01-25T20:14:19;15.38;;;3.50;;
14736;SDS011;7459;53.590;10.062;2024-01-25T20:16:45;23.08;;;4.10;;
14736;SDS011;7459;53.590;10.062;2024-01-25T20:19:11;23.77;;;4.83;;
14736;SDS011;7459;53.590;10.062;2024-01-25T20:21:37;16.63;;;3.95;;
14736;SDS011;7459;53.590;10.062;2024-01-25T20:24:02;17.93;;;4.00;;
14736;SDS011;7459;53.590;10.062;2024-01-25T20:26:28;14.00;;;4.43;;
14736;SDS011;7459;53.590;10.062;2024-01-25T20:28:54;18.48;;;4.55;;
14736;SDS011;7459;53.590;10.062;2024-01-25T20:31:20;12.02;;;4.35;;
14736;SDS011;7459;53.590;10.062;2024-01-25T20:33:46;21.88;;;5.32;;
14736;SDS011;7459;53.590;10.062;2024-01-25T20:36:11;17.90;;;4.80;;
14736;SDS011;7459;53.590;10.062;2024-01-25T20:38:37;24.80;;;4.80;;
14736;SDS011;7459;53.590;10.062;2024-01-25T20:41:03;22.77;;;4.80;;
14736;SDS011;7459;53.590;10.062;2024-01-25T20:43:28;17.98;;;4.45;;
14736;SDS011;7459;53.590;10.062;2024-01-25T20:45:54;22.17;;;4.47;;
14736;SDS011;7459;53.590;10.062;2024-01-25T20:48:21;24.88;;;4.28;;
14736;SDS011;7459;53.590;10.062;2024-01-25T20:50:47;22.10;;;4.85;;
14736;SDS011;7459;53.590;10.062;2024-01-25T20:53:12;16.07;;;4.93;;
14736;SDS011;7459;53.590;10.062;2024-01-25T20:55:38;23.77;;;5.93;;
14736;SDS011;7459;53.590;10.062;2024-01-25T20:58:04;19.00;;;5.73;;
14736;SDS011;7459;53.590;10.062;2024-01-25T21:00:29;18.08;;;4.75;;
14736;SDS011;7459;53.590;10.062;2024-01-25T21:02:57;23.23;;;5.77;;
14736;SDS011;7459;53.590;10.062;2024-01-25T21:05:23;22.33;;;4.50;;
14736;SDS011;7459;53.590;10.062;2024-01-25T21:07:49;24.58;;;5.55;;
14736;SDS011;7459;53.590;10.062;2024-01-25T21:10:15;21.85;;;5.07;;
14736;SDS011;7459;53.590;10.062;2024-01-25T21:12:43;22.20;;;5.18;;
14736;SDS011;7459;53.590;10.062;2024-01-25T21:15:09;24.30;;;4.65;;
14736;SDS011;7459;53.590;10.062;2024-01-25T21:17:38;21.75;;;4.78;;
14736;SDS011;7459;53.590;10.062;2024-01-25T21:20:05;25.60;;;4.70;;
14736;SDS011;7459;53.590;10.062;2024-01-25T21:22:33;18.55;;;4.90;;
14736;SDS011;7459;53.590;10.062;2024-01-25T21:24:59;23.63;;;4.90;;
14736;SDS011;7459;53.590;10.062;2024-01-25T21:27:24;20.77;;;3.97;;
14736;SDS011;7459;53.590;10.062;2024-01-25T21:29:50;18.23;;;4.72;;
14736;SDS011;7459;53.590;10.062;2024-01-25T21:32:16;20.10;;;4.57;;
14736;SDS011;7459;53.590;10.062;2024-01-25T21:34:41;16.77;;;4.43;;
14736;SDS011;7459;53.590;10.062;2024-01-25T21:37:07;23.92;;;4.57;;
14736;SDS011;7459;53.590;10.062;2024-01-25T21:39:33;19.10;;;4.63;;
14736;SDS011;7459;53.590;10.062;2024-01-25T21:41:58;18.75;;;4.43;;
14736;SDS011;7459;53.590;10.062;2024-01-25T21:44:24;25.07;;;5.43;;
14736;SDS011;7459;53.590;10.062;2024-01-25T21:46:50;18.10;;;4.30;;
14736;SDS011;7459;53.590;10.062;2024-01-25T21:49:16;19.48;;;4.43;;
14736;SDS011;7459;53.590;10.062;2024-01-25T21:51:44;21.35;;;4.22;;
14736;SDS011;7459;53.590;10.062;2024-01-25T21:54:11;19.80;;;3.50;;
14736;SDS011;7459;53.590;10.062;2024-01-25T21:56:37;23.65;;;4.60;;
14736;SDS011;7459;53.590;10.062;2024-01-25T21:59:04;24.08;;;4.53;;
14736;SDS011;7459;53.590;10.062;2024-01-25T22:01:30;20.10;;;4.78;;
14736;SDS011;7459;53.590;10.062;2024-01-25T22:03:56;26.23;;;4.22;;
14736;SDS011;7459;53.590;10.062;2024-01-25T22:06:22;24.93;;;4.80;;
14736;SDS011;7459;53.590;10.062;2024-01-25T22:08:47;19.15;;;4.15;;
14736;SDS011;7459;53.590;10.062;2024-01-25T22:11:13;21.00;;;5.25;;
14736;SDS011;7459;53.590;10.062;2024-01-25T22:13:39;18.57;;;4.47;;
14736;SDS011;7459;53.590;10.062;2024-01-25T22:16:06;19.08;;;4.57;;
14736;SDS011;7459;53.590;10.062;2024-01-25T22:18:32;28.77;;;5.13;;
14736;SDS011;7459;53.590;10.062;2024-01-25T22:20:58;19.88;;;6.63;;
14736;SDS011;7459;53.590;10.062;2024-01-25T22:23:24;22.27;;;4.70;;
14736;SDS011;7459;53.590;10.062;2024-01-25T22:25:52;20.45;;;4.70;;
14736;SDS011;7459;53.590;10.062;2024-01-25T22:28:18;18.83;;;4.30;;
14736;SDS011;7459;53.590;10.062;2024-01-25T22:30:45;18.23;;;4.60;;
14736;SDS011;7459;53.590;10.062;2024-01-25T22:33:11;17.27;;;5.13;;
14736;SDS011;7459;53.590;10.062;2024-01-25T22:35:38;20.90;;;4.90;;
14736;SDS011;7459;53.590;10.062;2024-01-25T22:38:04;18.35;;;5.20;;
14736;SDS011;7459;53.590;10.062;2024-01-25T22:40:30;24.02;;;6.28;;
14736;SDS011;7459;53.590;10.062;2024-01-25T22:42:56;21.20;;;5.07;;
14736;SDS011;7459;53.590;10.062;2024-01-25T22:45:22;18.05;;;4.43;;
14736;SDS011;7459;53.590;10.062;2024-01-25T22:47:48;16.67;;;5.07;;
14736;SDS011;7459;53.590;10.062;2024-01-25T22:50:14;13.98;;;4.60;;
14736;SDS011;7459;53.590;10.062;2024-01-25T22:52:41;18.55;;;4.55;;
14736;SDS011;7459;53.590;10.062;2024-01-25T22:55:07;26.27;;;5.57;;
14736;SDS011;7459;53.590;10.062;2024-01-25T22:57:33;31.83;;;6.03;;
14736;SDS011;7459;53.590;10.062;2024-01-25T22:59:59;21.60;;;5.10;;
14736;SDS011;7459;53.590;10.062;2024-01-25T23:02:28;19.63;;;4.38;;
14736;SDS011;7459;53.590;10.062;2024-01-25T23:04:54;18.00;;;5.27;;
14736;SDS011;7459;53.590;10.062;2024-01-25T23:07:19;16.20;;;4.80;;
14736;SDS011;7459;53.590;10.062;2024-01-25T23:09:45;18.38;;;5.10;;
14736;SDS011;7459;53.590;10.062;2024-01-25T23:12:11;21.47;;;5.77;;
14736;SDS011;7459;53.590;10.062;2024-01-25T23:14:36;21.25;;;5.35;;
14736;SDS011;7459;53.590;10.062;2024-01-25T23:17:02;17.80;;;5.57;;
14736;SDS011;7459;53.590;10.062;2024-01-25T23:19:29;23.48;;;5.97;;
14736;SDS011;7459;53.590;10.062;2024-01-25T23:21:54;17.30;;;4.87;;
14736;SDS011;7459;53.590;10.062;2024-01-25T23:24:20;22.42;;;5.28;;
14736;SDS011;7459;53.590;10.062;2024-01-25T23:26:46;24.90;;;5.43;;
14736;SDS011;7459;53.590;10.062;2024-01-25T23:29:11;22.17;;;5.05;;
14736;SDS011;7459;53.590;10.062;2024-01-25T23:31:37;27.27;;;5.07;;